| time (UTC) | temp C | wind direction | speed KPH | gust KPH | rain 1hr cm | rain 24hr cm | rain mn cm | humidity % | barometer mb |
| 20260906220028 | 31 | 360 | 3.2 | 12.9 | 0.00 | 0.00 | 0.00 | 37 | 1001.8 |
| 20260906214521 | 31 | 57 | 6.4 | 12.9 | 0.00 | 0.00 | 0.00 | 37 | 1002.0 |
| 20260906213020 | 31 | 23 | 4.8 | 11.3 | 0.00 | 0.00 | 0.00 | 36 | 1002.1 |
| 20260906211518 | 31 | 63 | 0.0 | 4.8 | 0.00 | 0.00 | 0.00 | 36 | 1002.5 |
| 20260906210015 | 30 | 33 | 3.2 | 6.4 | 0.00 | 0.00 | 0.00 | 36 | 1002.8 |
| 20260906204515 | 31 | 22 | 8.0 | 12.9 | 0.00 | 0.00 | 0.00 | 35 | 1002.8 |
| 20260906203014 | 31 | 26 | 4.8 | 14.5 | 0.00 | 0.00 | 0.00 | 38 | 1002.9 |
| 20260906201513 | 31 | 55 | 4.8 | 11.3 | 0.00 | 0.00 | 0.00 | 38 | 1003.0 |
| 20260906200009 | 31 | 113 | 0.0 | 9.7 | 0.00 | 0.00 | 0.00 | 41 | 1003.3 |
| 20260906194508 | 30 | 347 | 6.4 | 14.5 | 0.00 | 0.00 | 0.00 | 41 | 1003.3 |
| 20260906193005 | 30 | 14 | 6.4 | 11.3 | 0.00 | 0.00 | 0.00 | 40 | 1003.5 |
| 20260906191503 | 28 | 227 | 3.2 | 9.7 | 0.00 | 0.00 | 0.00 | 42 | 1003.7 |
| 20260906190100 | 28 | 31 | 6.4 | 9.7 | 0.00 | 0.00 | 0.00 | 45 | 1003.8 |
| 20260906184557 | 28 | 212 | 0.0 | 9.7 | 0.00 | 0.00 | 0.00 | 47 | 1004.3 |
| 20260906183112 | 27 | 360 | 6.4 | 11.3 | 0.00 | 0.00 | 0.00 | 49 | 1004.5 |
| 20260906181555 | 27 | 50 | 3.2 | 11.3 | 0.00 | 0.00 | 0.00 | 49 | 1004.7 |
| 20260906180111 | 26 | 67 | 6.4 | 11.3 | 0.00 | 0.00 | 0.00 | 51 | 1004.8 |
| 20260906174546 | 26 | 67 | 0.0 | 4.8 | 0.00 | 0.00 | 0.00 | 55 | 1005.4 |
| 20260906173043 | 25 | 14 | 3.2 | 8.0 | 0.00 | 0.00 | 0.00 | 57 | 1005.6 |
| 20260906171541 | 25 | 36 | 4.8 | 8.0 | 0.00 | 0.00 | 0.00 | 58 | 1005.8 |
| 20260906170041 | 25 | 107 | 3.2 | 8.0 | 0.00 | 0.00 | 0.00 | 58 | 1006.1 |
| 20260906164536 | 25 | 36 | 3.2 | 11.3 | 0.00 | 0.00 | 0.00 | 61 | 1006.2 |
| 20260906163035 | 23 | 111 | 3.2 | 8.0 | 0.00 | 0.00 | 0.00 | 63 | 1006.2 |
| 20260906161531 | 22 | 102 | 4.8 | 11.3 | 0.00 | 0.00 | 0.00 | 66 | 1006.1 |
| 20260906160027 | 22 | 105 | 3.2 | 9.7 | 0.00 | 0.00 | 0.00 | 68 | 1006.1 |
| 20260906154523 | 22 | 79 | 3.2 | 9.7 | 0.00 | 0.00 | 0.00 | 68 | 1006.4 |
| 20260906153019 | 21 | 63 | 4.8 | 9.7 | 0.00 | 0.00 | 0.00 | 71 | 1006.3 |
| 20260906151526 | 20 | 29 | 8.0 | 12.9 | 0.00 | 0.00 | 0.00 | 73 | 1006.6 |
| 20260906150016 | 19 | 344 | 4.8 | 9.7 | 0.00 | 0.00 | 0.00 | 75 | 1006.7 |
| 20260906144514 | 19 | 30 | 4.8 | 11.3 | 0.00 | 0.00 | 0.00 | 75 | 1006.7 |
| 20260906143012 | 18 | 62 | 3.2 | 12.9 | 0.00 | 0.00 | 0.00 | 77 | 1006.6 |
| 20260906141508 | 18 | 323 | 3.2 | 8.0 | 0.00 | 0.00 | 0.00 | 77 | 1006.6 |
| 20260906140007 | 17 | 18 | 3.2 | 11.3 | 0.00 | 0.00 | 0.00 | 78 | 1006.6 |
| 20260906134501 | 17 | 306 | 3.2 | 8.0 | 0.00 | 0.00 | 0.00 | 78 | 1006.7 |
| 20260906133103 | 17 | 327 | 1.6 | 4.8 | 0.00 | 0.00 | 0.00 | 77 | 1006.7 |
| 20260906131557 | 17 | 327 | 3.2 | 8.0 | 0.00 | 0.00 | 0.00 | 77 | 1006.7 |
| 20260906130105 | 16 | 336 | 0.0 | 6.4 | 0.00 | 0.00 | 0.00 | 76 | 1006.6 |
| 20260906124551 | 16 | 332 | 0.0 | 4.8 | 0.00 | 0.00 | 0.00 | 76 | 1006.3 |
| 20260906123048 | 16 | 329 | 0.0 | 1.6 | 0.00 | 0.00 | 0.00 | 75 | 1006.3 |
| 20260906121556 | 16 | 338 | 3.2 | 6.4 | 0.00 | 0.00 | 0.00 | 75 | 1006.2 |
| 20260906120047 | 16 | 326 | 0.0 | 4.8 | 0.00 | 0.00 | 0.00 | 74 | 1006.2 |
| 20260906114556 | 16 | 350 | 1.6 | 3.2 | 0.00 | 0.00 | 0.00 | 74 | 1006.2 |
| 20260906113054 | 17 | 326 | 1.6 | 4.8 | 0.00 | 0.00 | 0.00 | 74 | 1006.1 |
| 20260906111544 | 17 | 32 | 0.0 | 1.6 | 0.00 | 0.00 | 0.00 | 75 | 1005.9 |
| 20260906110044 | 17 | 32 | 0.0 | 1.6 | 0.00 | 0.00 | 0.00 | 76 | 1006.0 |
| 20260906104540 | 17 | 32 | 0.0 | 1.6 | 0.00 | 0.00 | 0.00 | 75 | 1005.9 |
| 20260906103037 | 17 | 32 | 0.0 | 3.2 | 0.00 | 0.00 | 0.00 | 74 | 1006.1 |
| 20260906101535 | 18 | 32 | 0.0 | 6.4 | 0.00 | 0.00 | 0.00 | 72 | 1006.0 |
| 20260906100034 | 18 | 21 | 3.2 | 6.4 | 0.00 | 0.00 | 0.00 | 70 | 1006.0 |
| 20260906094534 | 18 | 28 | 1.6 | 4.8 | 0.00 | 0.00 | 0.00 | 68 | 1006.0 |
| 20260906093030 | 18 | 24 | 1.6 | 8.0 | 0.00 | 0.00 | 0.00 | 67 | 1005.9 |
| 20260906091533 | 18 | 17 | 3.2 | 8.0 | 0.00 | 0.00 | 0.00 | 67 | 1005.7 |
| 20260906090028 | 18 | 41 | 4.8 | 9.7 | 0.00 | 0.00 | 0.00 | 66 | 1005.2 |
| 20260906084523 | 19 | 349 | 6.4 | 12.9 | 0.00 | 0.00 | 0.00 | 65 | 1005.1 |
| 20260906083021 | 20 | 338 | 4.8 | 12.9 | 0.00 | 0.00 | 0.00 | 63 | 1005.2 |
| 20260906081527 | 20 | 28 | 4.8 | 12.9 | 0.00 | 0.00 | 0.00 | 62 | 1005.4 |
| 20260906080014 | 20 | 34 | 6.4 | 14.5 | 0.00 | 0.00 | 0.00 | 59 | 1005.4 |
| 20260906074519 | 20 | 29 | 4.8 | 11.3 | 0.00 | 0.00 | 0.00 | 54 | 1005.3 |
| 20260906073011 | 21 | 14 | 6.4 | 11.3 | 0.00 | 0.00 | 0.00 | 52 | 1005.4 |
| 20260906071511 | 21 | 355 | 3.2 | 8.0 | 0.00 | 0.00 | 0.00 | 50 | 1005.3 |
| 20260906070009 | 21 | 360 | 3.2 | 8.0 | 0.00 | 0.00 | 0.00 | 48 | 1005.3 |
| 20260906064509 | 21 | 259 | 0.0 | 8.0 | 0.00 | 0.00 | 0.00 | 48 | 1005.2 |
| 20260906063007 | 21 | 347 | 1.6 | 6.4 | 0.00 | 0.00 | 0.00 | 49 | 1005.1 |
| 20260906061505 | 21 | 338 | 4.8 | 8.0 | 0.00 | 0.00 | 0.00 | 51 | 1005.1 |
| 20260906060010 | 21 | 221 | 3.2 | 8.0 | 0.00 | 0.00 | 0.00 | 52 | 1005.5 |
| 20260906054601 | 21 | 142 | 0.0 | 0.0 | 0.00 | 0.00 | 0.00 | 52 | 1005.3 |
| 20260906053101 | 21 | 290 | 0.0 | 0.0 | 0.00 | 0.00 | 0.00 | 53 | 1005.7 |
| 20260906051603 | 22 | 327 | 0.0 | 0.0 | 0.00 | 0.00 | 0.00 | 48 | 1005.5 |
| 20260906050058 | 22 | 328 | 0.0 | 3.2 | 0.00 | 0.00 | 0.00 | 48 | 1005.2 |
| 20260906044556 | 21 | 244 | 3.2 | 11.3 | 0.00 | 0.00 | 0.00 | 50 | 1005.4 |
| 20260906043055 | 22 | 115 | 0.0 | 11.3 | 0.00 | 0.00 | 0.00 | 46 | 1005.0 |
| 20260906041555 | 23 | 30 | 1.6 | 4.8 | 0.00 | 0.00 | 0.00 | 46 | 1004.6 |
| 20260906040054 | 24 | 76 | 0.0 | 4.8 | 0.00 | 0.00 | 0.00 | 42 | 1004.3 |
| 20260906034554 | 25 | 18 | 1.6 | 4.8 | 0.00 | 0.00 | 0.00 | 38 | 1004.1 |
| 20260906033054 | 25 | 26 | 4.8 | 9.7 | 0.00 | 0.00 | 0.00 | 38 | 1004.1 |
| 20260906031600 | 25 | 57 | 3.2 | 9.7 | 0.00 | 0.00 | 0.00 | 37 | 1004.0 |
| 20260906030053 | 25 | 340 | 3.2 | 11.3 | 0.00 | 0.00 | 0.00 | 37 | 1003.6 |
| 20260906024552 | 26 | 55 | 4.8 | 12.9 | 0.00 | 0.00 | 0.00 | 37 | 1003.5 |
| 20260906023052 | 26 | 355 | 3.2 | 9.7 | 0.00 | 0.00 | 0.00 | 36 | 1003.4 |
| 20260906021551 | 26 | 321 | 1.6 | 6.4 | 0.00 | 0.00 | 0.00 | 36 | 1003.3 |
| 20260906020058 | 27 | 360 | 3.2 | 6.4 | 0.00 | 0.00 | 0.00 | 34 | 1003.2 |
| 20260906014550 | 27 | 360 | 1.6 | 6.4 | 0.00 | 0.00 | 0.00 | 32 | 1002.8 |
| 20260906013050 | 28 | 301 | 1.6 | 8.0 | 0.00 | 0.00 | 0.00 | 31 | 1002.6 |
| 20260906011550 | 29 | 325 | 3.2 | 9.7 | 0.00 | 0.00 | 0.00 | 30 | 1002.6 |
| 20260906010049 | 30 | 292 | 1.6 | 12.9 | 0.00 | 0.00 | 0.00 | 29 | 1002.6 |
| 20260906004548 | 30 | 320 | 4.8 | 11.3 | 0.00 | 0.00 | 0.00 | 27 | 1002.5 |
| 20260906003048 | 31 | 303 | 3.2 | 14.5 | 0.00 | 0.00 | 0.00 | 27 | 1002.6 |
| 20260906001547 | 31 | 276 | 1.6 | 8.0 | 0.00 | 0.00 | 0.00 | 27 | 1002.5 |
| 20260906000047 | 32 | 284 | 1.6 | 4.8 | 0.00 | 0.00 | 0.00 | 27 | 1002.3 |
| 20260905234546 | 32 | 321 | 1.6 | 6.4 | 0.00 | 0.00 | 0.00 | 25 | 1002.3 |
| 20260905233049 | 33 | 11 | 1.6 | 6.4 | 0.00 | 0.00 | 0.00 | 24 | 1002.2 |
| 20260905231546 | 33 | 80 | 1.6 | 3.2 | 0.00 | 0.00 | 0.00 | 23 | 1002.2 |
| 20260905230050 | 33 | 134 | 0.0 | 6.4 | 0.00 | 0.00 | 0.00 | 23 | 1002.1 |
| 20260905224600 | 33 | 46 | 3.2 | 9.7 | 0.00 | 0.00 | 0.00 | 23 | 1002.0 |
| 20260905223044 | 33 | 60 | 1.6 | 11.3 | 0.00 | 0.00 | 0.00 | 23 | 1002.0 |
| 20260905221556 | 34 | 25 | 4.8 | 8.0 | 0.00 | 0.00 | 0.00 | 22 | 1002.1 |